LiveATC.Net - Listen to live air traffic control over the Internet! Contact for advertising information

ICAO: CYYJ  IATA: YYJ   Airport: Victoria International Airport
City: Victoria   State/Province: British Columbia
Country: Canada   Continent: North America
CYYJ METAR Weather: CYYJ 281908Z 28004KT 7SM R27/2800V4500FT/N VCFG FEW002 FEW006 FEW012 02/02 A3033 RMK SF1SF1SF1 SF TR SF TR VIS NW-NE 1 SLP272
CYYJ Flight Activity (FlightAware)
CYYJ Gnd/Twr
Feed Status: UP   Listeners: 4
Listen right in your browser - requires Flash (in browser, requires Flash)
Click here to listen with your own player (launches your MP3 player)
CYYJ Gnd/Twr Audio Archives
Victoria Ground121.900
Victoria Tower (Inner)119.700
Victoria Tower (Outer)119.100

Feed sponsored by: Victoria Flying Club


Unauthorized use prohibited. See Terms of Service

Find LiveATC Audio Streams

Airport/ARTCC Code

(e.g., 124.400, 128.75)
Site-wide search

Browse LiveATC Feeds
LiveATC Coverage Map
Top 50 LiveATC Feeds
Bad Weather Areas

Offer a LiveATC Feed
Press Inquiries

LiveATC on iPhone
LiveATC on Android

Windows Phone
Windows 8/10

LiveATC Mobile
(Mobile browser)

ATC Audio Archives
Interesting Recordings

LiveATC Forums

Home Page
Make a Donation
LiveATC Bookstore

Terms of Use
Privacy Policy

ATC/Radar Sites
U.S. ARTCC Freqs
Canadian Air Freqs


FAA Airport Status
Nat'l Airspace Status
Arrival Demand Charts

Server Software By:

Please make a donation to help us keep growing!